Time;durP1;ratioP1;P1;durP2;ratioP2;P2;SDS_P1;SDS_P2;PMS_P1;PMS_P2;Temp;Humidity;BMP_temperature;BMP_pressure;BME280_temperature;BME280_humidity;BME280_pressure;Samples;Min_cycle;Max_cycle;Signal;HPM_P1;HPM_P2
2023/08/09 00:23:09;;;;;;;4.67;3.53;;;14.80;96.70;;;;;;4593439;30;20302;-83
2023/08/09 00:27:31;;;;;;;3.57;3.20;;;14.80;97.30;;;;;;4599195;30;20222;-85
2023/08/09 00:53:21;;;;;;;4.27;3.00;;;14.60;97.40;;;;;;4662308;30;20742;-83
2023/08/09 01:44:12;;;;;;;3.97;2.87;;;14.80;99.90;;;;;;4539463;31;20612;-84
2023/08/09 02:29:52;;;;;;;5.27;3.67;;;14.60;99.90;;;;;;4535534;31;20647;-84
2023/08/09 02:54:44;;;;;;;3.90;3.07;;;14.40;99.90;;;;;;4576153;30;20596;-84
2023/08/09 03:15:36;;;;;;;5.10;3.20;;;14.20;99.90;;;;;;4666352;30;20286;-86
2023/08/09 03:35:24;;;;;;;3.17;2.87;;;14.00;99.90;;;;;;4515409;30;20699;-82
2023/08/09 03:56:07;;;;;;;3.60;3.20;;;13.70;99.90;;;;;;4558100;31;20301;-80
2023/08/09 04:36:41;;;;;;;6.33;3.50;;;14.40;99.90;;;;;;5323637;23;20279;-84
2023/08/09 05:06:52;;;;;;;7.03;4.63;;;14.90;99.90;;;;;;4826782;29;20211;-87
2023/08/09 05:27:26;;;;;;;4.30;2.80;;;15.80;99.90;;;;;;4733910;29;20214;-83
2023/08/09 05:52:23;;;;;;;3.13;2.23;;;16.60;93.00;;;;;;4829300;29;20605;-87
2023/08/09 06:12:48;;;;;;;2.33;2.17;;;17.10;90.90;;;;;;4628850;30;20944;-84
2023/08/09 06:43:12;;;;;;;1.83;1.53;;;18.10;84.90;;;;;;4660266;30;20211;-83
2023/08/09 07:03:50;;;;;;;2.00;1.37;;;18.70;81.40;;;;;;4562729;31;20576;-87
2023/08/09 07:08:10;;;;;;;2.73;1.63;;;18.80;80.60;;;;;;4532849;31;20234;-84
2023/08/09 07:28:32;;;;;;;1.93;1.50;;;19.40;78.00;;;;;;4619299;30;21008;-87
2023/08/09 07:54:21;;;;;;;2.53;1.80;;;20.20;76.50;;;;;;4640261;30;20242;-86
2023/08/09 08:24:25;;;;;;;1.65;1.55;;;21.10;68.90;;;;;;4675249;30;20347;-84
2023/08/09 08:44:56;;;;;;;3.67;2.00;;;21.80;64.00;;;;;;4562699;30;20223;-84
2023/08/09 09:05:17;;;;;;;4.80;2.60;;;21.70;62.60;;;;;;4565076;30;20507;-85
2023/08/09 09:30:40;;;;;;;4.90;2.80;;;22.00;60.80;;;;;;4531956;30;20754;-84
2023/08/09 09:51:10;;;;;;;3.15;1.90;;;21.50;62.10;;;;;;4542275;30;20219;-86
2023/08/09 10:21:32;;;;;;;2.30;2.10;;;22.00;58.70;;;;;;4582827;30;20227;-84
2023/08/09 10:46:50;;;;;;;2.10;1.98;;;21.40;58.80;;;;;;4576006;30;20252;-83
2023/08/09 11:06:51;;;;;;;2.55;2.28;;;22.30;57.80;;;;;;4551555;30;20626;-83
2023/08/09 11:37:10;;;;;;;3.83;2.20;;;21.80;56.60;;;;;;4602322;30;20412;-84
2023/08/09 11:57:25;;;;;;;2.90;2.15;;;21.70;56.40;;;;;;4591952;30;20752;-81
2023/08/09 12:33:30;;;;;;;3.93;3.20;;;18.90;90.30;;;;;;4720706;29;20201;-83
2023/08/09 13:33:29;;;;;;;6.13;2.97;;;19.80;84.10;;;;;;4737741;29;20672;-82
2023/08/09 13:58:56;;;;;;;5.30;4.80;;;16.20;99.90;;;;;;4734525;29;20307;-84
2023/08/09 14:33:53;;;;;;;5.23;4.63;;;15.00;99.90;;;;;;4752620;29;20259;-84
2023/08/09 14:59:56;;;;;;;5.63;5.00;;;15.50;99.90;;;;;;4751332;29;20577;-85
2023/08/09 15:35:22;;;;;;;5.43;4.57;;;15.40;99.90;;;;;;4763779;29;20678;-86
2023/08/09 16:05:40;;;;;;;5.27;3.47;;;15.20;99.90;;;;;;4811822;29;20185;-82
2023/08/09 16:26:14;;;;;;;4.23;3.83;;;14.90;99.90;;;;;;4743712;29;20344;-82
2023/08/09 16:30:33;;;;;;;5.00;4.07;;;14.80;99.90;;;;;;4659495;30;20608;-83
2023/08/09 16:51:22;;;;;;;4.57;4.17;;;15.40;99.90;;;;;;4571756;30;20227;-83
2023/08/09 17:21:57;;;;;;;4.20;3.80;;;15.20;99.90;;;;;;4643275;30;20369;-84
2023/08/09 17:47:21;;;;;;;5.23;3.60;;;14.80;99.90;;;;;;4770317;29;20347;-84
2023/08/09 18:07:37;;;;;;;4.80;4.30;;;14.70;99.90;;;;;;4564995;31;20231;-85
2023/08/09 18:53:11;;;;;;;6.60;5.40;;;14.40;99.90;;;;;;4614689;30;20214;-83
2023/08/09 19:07:51;;;;;;;7.10;6.20;;;14.30;99.90;;;;;;5967467;23;20419;31
2023/08/09 19:33:34;;;;;;;6.57;5.97;;;13.80;99.90;;;;;;4811582;29;20218;-85
2023/08/09 20:14:24;;;;;;;10.20;8.03;;;13.60;99.90;;;;;;4747053;29;20296;-83
2023/08/09 20:44:49;;;;;;;8.67;7.83;;;13.60;99.90;;;;;;4801098;29;20258;-83
2023/08/09 21:14:57;;;;;;;9.73;8.73;;;13.60;99.90;;;;;;4712697;29;20206;-85
2023/08/09 21:35:26;;;;;;;8.50;7.70;;;13.70;99.90;;;;;;4710861;29;20242;-84
2023/08/09 21:55:34;;;;;;;9.43;8.53;;;13.60;99.90;;;;;;4692284;29;20270;-81
2023/08/09 22:21:00;;;;;;;10.63;8.93;;;13.60;99.90;;;;;;4670475;29;20259;-81
2023/08/09 23:56:52;;;;;;;22.93;18.83;;;13.30;99.90;;;;;;4484571;30;20502;-84
